Flight Track Log - Related Links

Times and Time Zones

All times are in EDT time to prevent confusion due to time zone crossing. See the SKW6492 flight status page for this flight to view local times or setup timezone preferences in your user account.

Time Position Orientation Groundspeed Altitude Reporting Facility
EDT Latitude Longitude Course Direction KTS MPH feet Rate Location/Type
Wed 04:22:11 PM 30.1281 -97.7622 291° West 242 278 5,500  Level Houston Center
Wed 04:23:00 PM 30.4527 -97.7699 293° West  Level FlightAware Approximate
Wed 04:23:13 PM 30.1667 -97.8311 303° West 253 291 7,300  Level Houston Center
Wed 04:24:00 PM 30.4981 -97.8948 293° West  Level FlightAware Approximate
Wed 04:24:15 PM 30.2242 -97.9028 313° West 279 321 10,000  Level Houston Center
Wed 04:25:00 PM 30.5405 -98.0213 291° West  Level FlightAware Approximate
Wed 04:25:18 PM 30.2783 -97.9769 310° West 282 325 12,400  Level Houston Center
Wed 04:26:00 PM 30.5827 -98.1478 291° West  Level FlightAware Approximate
Wed 04:26:20 PM 30.3200 -98.0589 301° West 295 339 14,600  Level Houston Center
Wed 04:27:00 PM 30.6248 -98.2745 291° West  Level FlightAware Approximate
Wed 04:27:22 PM 30.3781 -98.1194 318° Northwest 317 365 15,900  Level Houston Center
Wed 04:28:24 PM 30.4669 -98.1917 325° Northwest 331 381 17,800 1,790 Climbing Houston Center
Wed 04:29:26 PM 30.5489 -98.2592 325° Northwest 350 403 19,600 1,742 Climbing Houston Center
Wed 04:30:28 PM 30.6319 -98.3258 325° Northwest 356 410 21,400 1,645 Climbing Houston Center
Wed 04:31:30 PM 30.7153 -98.3939 325° Northwest 360 414 23,000 1,403 Climbing Houston Center
Wed 04:32:32 PM 30.8031 -98.4644 325° Northwest 373 429 24,300 1,200 Climbing Houston Center
Wed 04:33:35 PM 30.8914 -98.5356 325° Northwest 381 438 25,500 1,104 Climbing Houston Center
Wed 04:34:37 PM 30.9806 -98.6089 325° Northwest 386 444 26,600 1,016 Climbing Houston Center
Wed 04:35:39 PM 31.0744 -98.6861 325° Northwest 405 466 27,600 1,065 Climbing Houston Center
Wed 04:36:41 PM 31.1861 -98.7764 325° Northwest 414 476 28,800 1,065 Climbing Houston Center
Wed 04:37:43 PM 31.2822 -98.8561 325° Northwest 419 482 29,800 871 Climbing Houston Center
Wed 04:38:45 PM 31.3800 -98.9344 326° Northwest 421 484 30,600 968 Climbing Houston Center
Wed 04:39:47 PM 31.4769 -99.0158 324° Northwest 424 488 31,800 1,355 Climbing Houston Center
Wed 04:40:49 PM 31.5706 -99.0925 325° Northwest 410 472 33,400 1,087 Climbing Houston Center
Wed 04:41:54 PM 31.6644 -99.1756 323° Northwest 406 467 34,100 576 Climbing Fort Worth Center
Wed 04:42:54 PM 31.7572 -99.2506 326° Northwest 406 467 34,600 500 Climbing Fort Worth Center
Wed 04:43:54 PM 31.8478 -99.3308 323° Northwest 406 467 35,100 533 Climbing Fort Worth Center
Wed 04:45:54 PM 32.0375 -99.4867 325° Northwest 406 467 36,200 567 Climbing Fort Worth Center
Wed 04:46:54 PM 32.1342 -99.5675 325° Northwest 406 467 36,800 360 Climbing Fort Worth Center
Wed 04:50:00 PM 32.3171 -99.7110 326° Northwest  Level FlightAware Approximate
Wed 04:50:54 PM 32.5106 -99.8844 326° Northwest 417 480 38,000  Level Fort Worth Center
Wed 04:51:54 PM 32.6364 -99.9592 333° Northwest 435 501 38,000  Level Fort Worth Center
Wed 04:52:54 PM 32.7414 -100.0264 332° Northwest 431 496 38,000  Level Fort Worth Center
Wed 04:53:54 PM 32.8442 -100.0986 329° Northwest 437 503 38,000  Level Fort Worth Center
Wed 04:54:54 PM 32.9492 -100.1664 332° Northwest 432 497 38,000  Level Fort Worth Center
Wed 04:55:54 PM 33.0519 -100.2339 331° Northwest 427 491 38,000  Level Fort Worth Center
Wed 04:56:54 PM 33.1550 -100.2992 332° Northwest 427 491 38,000  Level Fort Worth Center
Wed 04:57:54 PM 33.2558 -100.3644 332° Northwest 427 491 38,000  Level Fort Worth Center
Wed 04:58:54 PM 33.3583 -100.4325 331° Northwest 427 491 38,000  Level Fort Worth Center
Wed 04:59:54 PM 33.4611 -100.5008 331° Northwest 427 491 38,000  Level Fort Worth Center
Wed 05:00:54 PM 33.5658 -100.5694 331° Northwest 422 486 38,000  Level Fort Worth Center
Wed 05:01:54 PM 33.6683 -100.6381 331° Northwest 422 486 38,000  Level Fort Worth Center
Wed 05:02:54 PM 33.7731 -100.7069 331° Northwest 422 486 38,000  Level Fort Worth Center
Wed 05:03:54 PM 33.8775 -100.7783 330° Northwest 422 486 38,000  Level Fort Worth Center
Wed 05:06:21 PM 34.1233 -100.9394 332° Northwest 427 491 38,000  Level Albuquerque Center
Wed 05:07:23 PM 34.2267 -101.0097 331° Northwest 426 490 38,000  Level Albuquerque Center
Wed 05:08:25 PM 34.3317 -101.0789 331° Northwest 428 493 38,000  Level Albuquerque Center
Wed 05:09:27 PM 34.4353 -101.1486 331° Northwest 427 491 38,000  Level Albuquerque Center
Wed 05:10:29 PM 34.5594 -101.2353 330° Northwest 429 494 38,000  Level Albuquerque Center
Wed 05:11:31 PM 34.6639 -101.3053 331° Northwest 428 493 38,000  Level Albuquerque Center
Wed 05:12:33 PM 34.7681 -101.3758 331° Northwest 429 494 38,000  Level Albuquerque Center
Wed 05:13:35 PM 34.8719 -101.4472 331° Northwest 429 494 38,000  Level Albuquerque Center
Wed 05:14:36 PM 34.9722 -101.5167 330° Northwest 427 491 38,000  Level Albuquerque Center
Wed 05:15:38 PM 35.0769 -101.5881 331° Northwest 428 493 38,000  Level Albuquerque Center
Wed 05:16:40 PM 35.1869 -101.6625 331° Northwest 424 488 38,000  Level Albuquerque Center
Wed 05:17:42 PM 35.2892 -101.7342 330° Northwest 421 484 38,000  Level Albuquerque Center
Wed 05:18:44 PM 35.4106 -101.8172 331° Northwest 424 488 38,000  Level Albuquerque Center
Wed 05:19:46 PM 35.5125 -101.8872 331° Northwest 421 484 38,000  Level Albuquerque Center
Wed 05:20:48 PM 35.6200 -101.9600 331° Northwest 422 486 38,000  Level Albuquerque Center
Wed 05:21:50 PM 35.7256 -102.0286 332° Northwest 427 491 38,000  Level Albuquerque Center
Wed 05:22:52 PM 35.8400 -102.0767 341° North 434 499 38,000  Level Albuquerque Center
Wed 05:23:54 PM 35.9567 -102.1256 341° North 439 505 38,000  Level Albuquerque Center
Wed 05:24:55 PM 36.0725 -102.1733 342° North 440 506 38,000  Level Albuquerque Center
Wed 05:25:57 PM 36.1886 -102.2211 342° North 440 506 38,000  Level Albuquerque Center
Wed 05:26:59 PM 36.3281 -102.2794 341° North 440 506 38,000  Level Albuquerque Center
Wed 05:28:01 PM 36.4442 -102.3258 342° North 439 505 38,000  Level Albuquerque Center
Wed 05:29:03 PM 36.5600 -102.3747 341° North 440 506 38,000  Level Albuquerque Center
Wed 05:30:05 PM 36.6769 -102.4231 342° North 442 509 38,000 -194 Level Albuquerque Center
Wed 05:31:07 PM 36.7953 -102.4747 341° North 447 514 37,600 -629 Descending Albuquerque Center
Wed 05:32:09 PM 36.9317 -102.5306 342° North 456 525 36,700 -774 Descending Albuquerque Center
Wed 05:33:11 PM 37.0533 -102.5819 341° North 471 542 36,000 -341 Descending Albuquerque Center
Wed 05:34:12 PM 37.1931 -102.6406 342° North 474 545 36,000  Level Albuquerque Center
Wed 05:35:14 PM 37.3119 -102.6906 342° North 471 542 36,000  Level Albuquerque Center
Wed 05:35:54 PM 37.3825 -102.7369 332° Northwest 456 525 36,000  Level Denver Center
Wed 05:36:56 PM 37.5006 -102.8194 331° Northwest 438 504 36,000  Level Denver Center
Wed 05:37:58 PM 37.5997 -102.8928 330° Northwest 434 499 36,000 48 Level Denver Center
Wed 05:39:00 PM 37.7189 -102.9783 330° Northwest 438 504 36,100  Climbing Denver Center
Wed 05:40:02 PM 37.8217 -103.0528 330° Northwest 442 509 36,000 -49 Descending Denver Center
Wed 05:41:03 PM 37.9256 -103.1292 330° Northwest 447 514 36,000  Level Denver Center
Wed 05:42:05 PM 38.0431 -103.2128 331° Northwest 453 521 36,000  Level Denver Center
Wed 05:43:07 PM 38.1531 -103.2956 329° Northwest 454 522 36,000  Level Denver Center
Wed 05:44:09 PM 38.2647 -103.3758 331° Northwest 455 524 36,000 -192 Level Denver Center
Wed 05:45:12 PM 38.3931 -103.4719 330° Northwest 456 525 35,600 -1,355 Descending Denver Center
Wed 05:46:13 PM 38.5056 -103.5556 330° Northwest 463 533 33,200 -1,887 Descending Denver Center
Wed 05:47:16 PM 38.6153 -103.6367 330° Northwest 452 520 31,700 -1,248 Descending Denver Center
Wed 05:48:18 PM 38.7103 -103.7081 330° Northwest 395 455 30,600 -1,548 Descending Denver Center
Wed 05:49:20 PM 38.8006 -103.7750 330° Northwest 372 428 28,500 -1,935 Descending Denver Center
Wed 05:50:22 PM 38.8886 -103.8422 329° Northwest 366 421 26,600 -1,839 Descending Denver Center
Wed 05:51:24 PM 38.9753 -103.9069 330° Northwest 357 411 24,700 -1,935 Descending Denver Center
Wed 05:52:26 PM 39.0725 -103.9814 329° Northwest 347 399 22,600 -1,984 Descending Denver Center
Wed 05:53:28 PM 39.1572 -104.0453 330° Northwest 349 402 20,600 -1,935 Descending Denver Center
Wed 05:54:30 PM 39.2442 -104.1136 329° Northwest 365 420 18,600 -1,452 Descending Denver Center
Wed 05:55:32 PM 39.2811 -104.2186 294° West 319 367 17,600 -1,210 Descending Denver Center
Wed 05:56:34 PM 39.3039 -104.3242 286° West 289 333 16,100 -1,452 Descending Denver Center
Wed 05:57:36 PM 39.3253 -104.4111 288° West 264 304 14,600 -1,355 Descending Denver Center
Wed 05:58:38 PM 39.3472 -104.5094 286° West 265 305 13,300 -1,113 Descending Denver Center
Wed 05:59:40 PM 39.3686 -104.5969 288° West 250 288 12,300 -823 Descending Denver Center
Wed 06:00:42 PM 39.3933 -104.6592 297° West 196 226 11,600 -774 Descending Denver Center
Wed 06:01:44 PM 39.4389 -104.6647 355° North 185 213 10,700 -629 Descending Denver Center
Wed 06:02:46 PM 39.4892 -104.6625 North 181 208 10,300 -290 Descending Denver Center
Wed 06:03:48 PM 39.5419 -104.6658 357° North 176 203 10,100 -97 Descending Denver Center
Wed 06:04:50 PM 39.5900 -104.6633 North 172 198 10,100 -387 Level Denver Center
Wed 06:05:52 PM 39.6383 -104.6631 360° North 174 200 9,300 -871 Descending Denver Center
Wed 06:06:54 PM 39.6942 -104.6619 North 186 214 8,300 -968 Descending Denver Center

Login

Don't have an account? Register now (free) for customized features, flight alerts, and more!